Time;durP1;ratioP1;P1;durP2;ratioP2;P2;SDS_P1;SDS_P2;PMS_P1;PMS_P2;Temp;Humidity;BMP_temperature;BMP_pressure;BME280_temperature;BME280_humidity;BME280_pressure;Samples;Min_cycle;Max_cycle;Signal;HPM_P1;HPM_P2
2023/10/04 04:36:09;;;;;;;2.83;1.83;;;;;;;;;;6254911;22;20495;-96
2023/10/04 04:38:38;;;;;;;2.87;1.50;;;;;;;;;;6215836;23;20422;-95
2023/10/04 04:41:12;;;;;;;1.73;1.13;;;;;;;;;;6194231;23;20432;-95
2023/10/04 04:43:43;;;;;;;2.67;1.80;;;;;;;;;;6243433;23;20401;-95
2023/10/04 05:22:31;;;;;;;4.03;1.87;;;;;;;;;;6248690;22;20500;-93
2023/10/04 05:24:58;;;;;;;3.00;2.33;;;;;;;;;;6235065;23;20377;-96
2023/10/04 05:27:24;;;;;;;2.00;1.60;;;;;;;;;;6213939;22;20438;-95
2023/10/04 05:30:27;;;;;;;3.80;2.20;;;;;;;;;;6178935;23;20408;-96
2023/10/04 05:32:53;;;;;;;4.93;2.27;;;;;;;;;;6174448;23;20852;-94
2023/10/04 05:35:21;;;;;;;9.57;2.13;;;;;;;;;;6153862;23;20375;-95
2023/10/04 05:37:49;;;;;;;5.07;2.00;;;;;;;;;;6150825;23;20406;-96
2023/10/04 05:40:23;;;;;;;4.40;2.00;;;;;;;;;;6156664;23;20427;-93
2023/10/04 05:42:50;;;;;;;5.00;1.87;;;;;;;;;;6152363;23;20399;-95
2023/10/04 05:45:17;;;;;;;4.63;2.13;;;;;;;;;;6177318;23;20368;-95
2023/10/04 05:47:48;;;;;;;4.70;2.10;;;;;;;;;;6178495;23;20371;-95
2023/10/04 05:50:18;;;;;;;3.17;1.73;;;;;;;;;;6173722;23;20895;-92
2023/10/04 05:55:23;;;;;;;5.30;2.23;;;;;;;;;;6262092;22;20425;-95
2023/10/04 05:57:50;;;;;;;4.17;2.60;;;;;;;;;;6212483;23;20425;-94
2023/10/04 06:00:24;;;;;;;7.10;2.87;;;;;;;;;;6213429;23;20402;-96
2023/10/04 06:02:56;;;;;;;4.80;2.70;;;;;;;;;;6217458;23;20385;-95
2023/10/04 06:05:23;;;;;;;3.27;2.80;;;;;;;;;;6213067;23;20435;-96
2023/10/04 06:07:54;;;;;;;2.40;2.10;;;;;;;;;;6210379;23;21202;-95
2023/10/04 06:10:23;;;;;;;1.93;1.50;;;;;;;;;;6210585;23;20397;-95
2023/10/04 06:12:51;;;;;;;2.40;1.80;;;;;;;;;;6210135;23;20397;-96
2023/10/04 06:15:17;;;;;;;1.60;1.40;;;;;;;;;;6210856;23;20393;-96
2023/10/04 06:17:47;;;;;;;6.60;1.83;;;;;;;;;;6213677;23;20378;-96
2023/10/04 06:25:26;;;;;;;2.50;1.60;;;;;;;;;;6229070;22;20438;-94
2023/10/04 06:27:52;;;;;;;3.60;1.67;;;;;;;;;;6117898;23;20947;-92
2023/10/04 06:30:23;;;;;;;14.40;2.63;;;;;;;;;;6089488;23;20426;-93
2023/10/04 06:32:52;;;;;;;4.30;2.23;;;;;;;;;;6091902;23;20378;-95
2023/10/04 06:35:23;;;;;;;1.53;1.43;;;;;;;;;;6095237;23;20890;-95
2023/10/04 06:40:26;;;;;;;5.07;2.60;;;;;;;;;;6219398;22;20518;-95
2023/10/04 06:42:53;;;;;;;2.77;1.80;;;;;;;;;;6230254;23;20454;-93
2023/10/04 06:45:19;;;;;;;2.53;1.83;;;;;;;;;;6203305;23;20387;-94
2023/10/04 06:47:46;;;;;;;2.50;1.93;;;;;;;;;;6202461;23;20383;-94
2023/10/04 06:50:18;;;;;;;8.80;1.90;;;;;;;;;;6202189;23;20391;-92
2023/10/04 06:52:52;;;;;;;6.83;1.80;;;;;;;;;;6232193;23;20350;-94
2023/10/04 06:55:19;;;;;;;3.43;1.50;;;;;;;;;;6170030;23;20395;-93
2023/10/04 06:57:45;;;;;;;5.83;1.50;;;;;;;;;;6177184;23;20426;-92
2023/10/04 07:00:15;;;;;;;2.90;1.93;;;;;;;;;;6168924;23;20732;-93
2023/10/04 07:02:59;;;;;;;2.90;2.03;;;;;;;;;;6171519;23;20460;-92
2023/10/04 07:05:27;;;;;;;3.07;1.83;;;;;;;;;;6171029;23;20401;-94
2023/10/04 07:07:53;;;;;;;5.37;2.70;;;;;;;;;;6169098;23;20427;-96
2023/10/04 07:10:20;;;;;;;3.70;1.50;;;;;;;;;;6167846;23;20416;-96
2023/10/04 07:12:46;;;;;;;1.77;1.33;;;;;;;;;;6173302;23;20864;-94
2023/10/04 07:15:13;;;;;;;2.87;1.57;;;;;;;;;;6168931;23;20396;-94
2023/10/04 07:17:39;;;;;;;4.80;1.40;;;;;;;;;;6143458;23;20387;-95
2023/10/04 07:20:13;;;;;;;5.03;2.07;;;;;;;;;;6169028;23;20380;-96
2023/10/04 07:22:40;;;;;;;2.53;1.50;;;;;;;;;;6171228;23;20601;-95
2023/10/04 07:25:08;;;;;;;2.83;1.67;;;;;;;;;;6172020;23;20392;-96
2023/10/04 07:35:25;;;;;;;4.60;1.10;;;;;;;;;;6214424;23;20430;-95
2023/10/04 07:37:51;;;;;;;1.57;0.87;;;;;;;;;;6202917;23;20409;-95
2023/10/04 07:40:17;;;;;;;1.83;1.23;;;;;;;;;;6175959;23;20395;-94
2023/10/04 07:42:47;;;;;;;6.30;1.63;;;;;;;;;;6205297;23;20391;-93
2023/10/04 07:45:14;;;;;;;3.00;1.33;;;;;;;;;;6175287;23;20383;-95
2023/10/04 07:47:41;;;;;;;1.77;1.10;;;;;;;;;;6177183;23;20387;-93
2023/10/04 07:50:09;;;;;;;3.03;1.37;;;;;;;;;;6177651;23;20429;-96
2023/10/04 07:52:37;;;;;;;4.53;2.87;;;;;;;;;;6178160;23;20383;-94
2023/10/04 07:55:05;;;;;;;2.90;1.70;;;;;;;;;;6200728;23;20375;-94
2023/10/04 07:57:32;;;;;;;5.40;1.53;;;;;;;;;;6179449;23;20420;-96
2023/10/04 07:59:58;;;;;;;5.20;1.70;;;;;;;;;;6177561;23;20445;-94
2023/10/04 08:07:36;;;;;;;3.57;1.00;;;;;;;;;;6232290;23;20421;-94
2023/10/04 08:10:03;;;;;;;2.50;1.00;;;;;;;;;;6204707;23;20409;-95
2023/10/04 08:12:30;;;;;;;1.90;1.20;;;;;;;;;;6207124;23;20461;-94
2023/10/04 08:15:01;;;;;;;2.47;1.40;;;;;;;;;;6229506;23;20470;-95
2023/10/04 08:17:33;;;;;;;7.60;2.20;;;;;;;;;;6208143;23;20361;-95
2023/10/04 08:20:04;;;;;;;2.90;1.40;;;;;;;;;;6229473;23;20371;-95
2023/10/04 08:22:32;;;;;;;1.30;0.90;;;;;;;;;;6211337;23;20391;-95
2023/10/04 08:24:58;;;;;;;5.30;1.10;;;;;;;;;;6208863;23;20386;-95
2023/10/04 08:27:30;;;;;;;4.10;1.13;;;;;;;;;;6208383;23;20422;-94
2023/10/04 08:30:11;;;;;;;8.70;1.40;;;;;;;;;;6265181;22;20370;-96
2023/10/04 08:32:37;;;;;;;4.40;1.30;;;;;;;;;;6237691;23;20401;-96
2023/10/04 08:35:05;;;;;;;2.30;1.17;;;;;;;;;;6210077;23;20420;-94
2023/10/04 08:37:36;;;;;;;2.07;1.00;;;;;;;;;;6214122;23;20386;-96
2023/10/04 08:40:02;;;;;;;2.60;1.13;;;;;;;;;;6234871;23;20375;-96
2023/10/04 08:42:28;;;;;;;4.27;1.40;;;;;;;;;;6210388;23;20436;-95
2023/10/04 08:44:54;;;;;;;4.73;1.63;;;;;;;;;;6207565;23;20401;-94
2023/10/04 08:47:22;;;;;;;1.20;0.90;;;;;;;;;;6206491;23;20428;-95
2023/10/04 08:49:57;;;;;;;4.00;1.20;;;;;;;;;;6234368;23;20394;-96
2023/10/04 08:52:35;;;;;;;1.80;1.20;;;;;;;;;;6213957;23;20389;-95
2023/10/04 08:55:07;;;;;;;3.30;0.90;;;;;;;;;;6208041;23;20374;-94
2023/10/04 08:57:40;;;;;;;1.70;1.03;;;;;;;;;;6209222;23;20382;-95
2023/10/04 09:00:18;;;;;;;3.13;1.50;;;;;;;;;;6208469;23;20382;-95
2023/10/04 09:02:48;;;;;;;2.33;1.30;;;;;;;;;;6213182;22;20373;-95
2023/10/04 09:05:46;;;;;;;4.20;1.17;;;;;;;;;;6244132;22;20394;-94
2023/10/04 09:08:31;;;;;;;3.03;1.20;;;;;;;;;;6269584;22;20433;-94
2023/10/04 09:11:01;;;;;;;6.10;1.27;;;;;;;;;;6239448;23;20378;-94
2023/10/04 09:13:29;;;;;;;4.47;1.77;;;;;;;;;;6244426;23;20882;-96
2023/10/04 09:16:00;;;;;;;3.93;1.30;;;;;;;;;;6216182;23;20389;-94
2023/10/04 09:18:30;;;;;;;5.50;1.07;;;;;;;;;;6268552;22;20414;-96
2023/10/04 09:21:02;;;;;;;9.00;1.63;;;;;;;;;;6214186;22;20382;-94
2023/10/04 09:23:29;;;;;;;3.37;1.03;;;;;;;;;;6244153;23;20330;-95
2023/10/04 09:25:59;;;;;;;3.07;1.60;;;;;;;;;;6217498;23;20426;-96
2023/10/04 09:31:18;;;;;;;1.87;1.30;;;;;;;;;;6235768;22;20509;-93
2023/10/04 09:49:55;;;;;;;2.73;1.13;;;;;;;;;;6231196;22;20500;-94
2023/10/04 10:13:10;;;;;;;2.13;1.00;;;;;;;;;;6235104;22;20437;-95
2023/10/04 10:54:33;;;;;;;3.13;1.10;;;;;;;;;;6251736;22;20419;-95
2023/10/04 10:56:59;;;;;;;3.17;1.10;;;;;;;;;;6203750;23;20387;-93
2023/10/04 10:59:26;;;;;;;6.30;1.57;;;;;;;;;;6205671;23;20411;-95
2023/10/04 11:01:53;;;;;;;5.10;1.30;;;;;;;;;;6206491;23;20744;-93
2023/10/04 11:04:21;;;;;;;3.77;1.67;;;;;;;;;;6229782;23;20399;-94
2023/10/04 11:06:47;;;;;;;4.90;1.20;;;;;;;;;;6198176;23;20480;-94
2023/10/04 11:09:17;;;;;;;6.40;1.60;;;;;;;;;;6201710;23;20463;-95
2023/10/04 11:11:44;;;;;;;2.50;1.47;;;;;;;;;;6205473;23;20427;-94
2023/10/04 11:14:12;;;;;;;5.00;1.70;;;;;;;;;;6232286;23;20375;-94
2023/10/04 11:16:39;;;;;;;3.20;1.07;;;;;;;;;;6206390;23;20411;-94
2023/10/04 11:19:05;;;;;;;3.47;1.43;;;;;;;;;;6205182;23;20397;-94
2023/10/04 11:21:34;;;;;;;3.50;1.50;;;;;;;;;;6179185;23;20918;-95
2023/10/04 11:24:03;;;;;;;2.07;1.20;;;;;;;;;;6184209;23;20375;-93
2023/10/04 11:26:30;;;;;;;2.23;1.10;;;;;;;;;;6226080;23;20487;-95
2023/10/04 11:29:00;;;;;;;2.60;1.50;;;;;;;;;;6178854;23;20425;-94
2023/10/04 11:31:26;;;;;;;2.73;1.30;;;;;;;;;;6177176;23;20398;-94
2023/10/04 11:33:55;;;;;;;1.70;1.20;;;;;;;;;;6176132;23;20402;-94
2023/10/04 11:36:22;;;;;;;2.63;1.00;;;;;;;;;;6179434;23;20383;-93
2023/10/04 11:38:49;;;;;;;2.70;1.20;;;;;;;;;;6173848;23;20418;-94
2023/10/04 11:41:16;;;;;;;2.20;1.60;;;;;;;;;;6174871;23;20394;-94
2023/10/04 11:43:51;;;;;;;1.97;1.27;;;;;;;;;;6173322;23;20380;-94
2023/10/04 11:46:17;;;;;;;2.37;1.53;;;;;;;;;;6182017;23;20402;-93
2023/10/04 11:48:47;;;;;;;1.57;0.80;;;;;;;;;;6173553;23;20359;-95
2023/10/04 11:51:42;;;;;;;;;;;;;;;;;;;;;
2023/10/04 12:33:08;;;;;;;2.90;1.27;;;;;;;;;;6233023;22;20437;-94
2023/10/04 12:35:34;;;;;;;3.47;1.50;;;;;;;;;;6205354;23;20421;-94
2023/10/04 12:38:00;;;;;;;3.47;1.30;;;;;;;;;;6204100;23;20730;-95
2023/10/04 12:40:26;;;;;;;4.07;1.50;;;;;;;;;;6206335;23;20389;-93
2023/10/04 12:42:53;;;;;;;2.30;1.07;;;;;;;;;;6138123;23;20388;-94
2023/10/04 12:45:23;;;;;;;1.70;1.03;;;;;;;;;;6112211;23;20396;-94
2023/10/04 12:47:52;;;;;;;3.63;1.67;;;;;;;;;;6114618;23;20388;-94
2023/10/04 12:50:22;;;;;;;2.60;1.03;;;;;;;;;;6117729;23;20377;-94
2023/10/04 12:52:49;;;;;;;2.40;1.30;;;;;;;;;;6116471;23;20381;-94
2023/10/04 12:55:26;;;;;;;3.37;1.40;;;;;;;;;;6114939;23;20444;-94
2023/10/04 12:58:09;;;;;;;3.20;1.27;;;;;;;;;;6141310;23;20477;-92
2023/10/04 13:00:36;;;;;;;3.27;1.20;;;;;;;;;;6111963;23;20393;-93
2023/10/04 13:03:03;;;;;;;3.87;1.37;;;;;;;;;;6113880;23;20803;-90
2023/10/04 13:05:29;;;;;;;3.67;2.03;;;;;;;;;;6110087;23;20369;-94
2023/10/04 13:07:57;;;;;;;2.47;1.30;;;;;;;;;;6110699;23;20381;-93
2023/10/04 13:10:23;;;;;;;2.37;1.40;;;;;;;;;;6106861;23;20385;-93
2023/10/04 13:12:50;;;;;;;3.47;1.63;;;;;;;;;;6124445;23;20511;-92
2023/10/04 13:15:17;;;;;;;2.80;1.20;;;;;;;;;;6200469;23;20402;-95
2023/10/04 13:17:43;;;;;;;6.23;1.43;;;;;;;;;;6200360;23;20485;-92
2023/10/04 13:20:15;;;;;;;5.57;1.10;;;;;;;;;;6202495;23;20375;-93
2023/10/04 13:22:43;;;;;;;2.27;1.67;;;;;;;;;;6206229;23;20377;-95
2023/10/04 13:25:09;;;;;;;3.00;1.07;;;;;;;;;;6204184;23;20384;-93
2023/10/04 13:27:39;;;;;;;3.60;1.33;;;;;;;;;;6214863;23;20418;-94
2023/10/04 13:30:08;;;;;;;4.37;0.90;;;;;;;;;;6202239;23;20390;-93
2023/10/04 13:32:36;;;;;;;7.07;1.10;;;;;;;;;;6205009;23;20394;-94
2023/10/04 13:35:09;;;;;;;3.83;1.30;;;;;;;;;;6202522;23;20409;-94
2023/10/04 13:37:36;;;;;;;3.50;1.57;;;;;;;;;;6207666;23;20382;-95
2023/10/04 13:40:08;;;;;;;2.57;1.20;;;;;;;;;;6227576;23;20445;-94
2023/10/04 13:42:35;;;;;;;6.03;1.40;;;;;;;;;;6209415;23;20374;-94
2023/10/04 13:45:06;;;;;;;2.87;1.40;;;;;;;;;;6202099;23;20382;-92
2023/10/04 13:47:32;;;;;;;4.50;1.17;;;;;;;;;;6203055;23;20425;-95
2023/10/04 13:49:58;;;;;;;3.03;1.10;;;;;;;;;;6203542;23;20451;-94
2023/10/04 13:52:27;;;;;;;2.23;1.10;;;;;;;;;;6204368;23;20384;-94
2023/10/04 13:54:53;;;;;;;2.10;1.20;;;;;;;;;;6227544;23;20402;-94
2023/10/04 13:57:47;;;;;;;5.10;1.00;;;;;;;;;;6205778;23;20378;-93
2023/10/04 14:00:28;;;;;;;2.17;1.03;;;;;;;;;;6225877;23;20592;-94
2023/10/04 14:02:55;;;;;;;5.23;1.20;;;;;;;;;;6207880;23;20901;-94
2023/10/04 14:05:21;;;;;;;2.70;1.10;;;;;;;;;;6201759;23;20386;-92
2023/10/04 14:07:50;;;;;;;3.23;0.90;;;;;;;;;;6203930;23;21022;-93
2023/10/04 14:10:22;;;;;;;2.23;0.97;;;;;;;;;;6204717;23;20382;-93
2023/10/04 14:12:52;;;;;;;3.53;1.47;;;;;;;;;;6208387;23;20385;-94
2023/10/04 14:15:19;;;;;;;3.80;0.97;;;;;;;;;;6205416;23;20417;-93
2023/10/04 14:17:45;;;;;;;2.57;1.27;;;;;;;;;;6140211;23;20373;-94
2023/10/04 14:20:14;;;;;;;4.60;1.40;;;;;;;;;;6136888;23;20393;-93
2023/10/04 14:22:42;;;;;;;5.67;1.00;;;;;;;;;;6136578;23;20455;-93
2023/10/04 14:25:09;;;;;;;2.10;1.20;;;;;;;;;;6135802;23;20392;-93
2023/10/04 14:27:40;;;;;;;1.83;1.00;;;;;;;;;;6140018;23;20419;-92
2023/10/04 14:30:11;;;;;;;1.70;0.70;;;;;;;;;;6110554;23;20394;-93
2023/10/04 14:32:43;;;;;;;1.93;1.20;;;;;;;;;;6107843;23;20413;-94
2023/10/04 14:35:12;;;;;;;2.57;1.17;;;;;;;;;;6107669;23;20497;-94
2023/10/04 14:37:39;;;;;;;2.37;1.03;;;;;;;;;;6107588;23;20442;-92
2023/10/04 14:40:14;;;;;;;2.40;1.03;;;;;;;;;;6108766;23;20376;-93
2023/10/04 14:42:40;;;;;;;3.47;1.30;;;;;;;;;;6109538;23;20393;-93
2023/10/04 14:45:09;;;;;;;1.50;0.90;;;;;;;;;;6110073;23;20390;-93
2023/10/04 14:47:35;;;;;;;3.20;1.27;;;;;;;;;;6108799;23;20452;-92
2023/10/04 14:50:08;;;;;;;2.27;1.00;;;;;;;;;;6138840;23;20401;-93
2023/10/04 14:52:34;;;;;;;2.30;1.03;;;;;;;;;;6136283;23;20366;-92
2023/10/04 14:55:01;;;;;;;4.70;1.40;;;;;;;;;;6137239;23;20424;-93
2023/10/04 14:57:30;;;;;;;2.80;1.40;;;;;;;;;;6136428;23;20377;-93
2023/10/04 14:59:56;;;;;;;1.73;0.80;;;;;;;;;;6141782;23;20381;-93
2023/10/04 15:02:23;;;;;;;3.90;1.00;;;;;;;;;;6135970;23;20393;-93
2023/10/04 15:04:49;;;;;;;2.43;1.13;;;;;;;;;;6135750;23;20540;-92
2023/10/04 15:07:18;;;;;;;8.33;1.20;;;;;;;;;;6136527;23;20909;-91
2023/10/04 15:09:47;;;;;;;1.53;1.03;;;;;;;;;;6137735;23;20396;-92
2023/10/04 15:12:15;;;;;;;3.57;1.07;;;;;;;;;;6140127;23;20849;-92
2023/10/04 15:14:41;;;;;;;2.20;1.13;;;;;;;;;;6142104;23;20377;-93
2023/10/04 15:17:09;;;;;;;2.83;1.33;;;;;;;;;;6136421;23;20369;-93
2023/10/04 15:19:35;;;;;;;1.80;0.77;;;;;;;;;;6159911;23;20389;-93
2023/10/04 15:22:06;;;;;;;3.40;0.80;;;;;;;;;;6205175;23;20382;-93
2023/10/04 15:24:33;;;;;;;7.03;1.40;;;;;;;;;;6206047;23;20375;-94
2023/10/04 15:26:59;;;;;;;1.83;1.00;;;;;;;;;;6202053;23;20420;-92
2023/10/04 15:29:28;;;;;;;2.33;1.10;;;;;;;;;;6208385;23;20404;-93
2023/10/04 15:31:57;;;;;;;3.50;1.00;;;;;;;;;;6204370;23;20397;-94
2023/10/04 15:34:28;;;;;;;1.50;1.30;;;;;;;;;;6203208;23;20417;-95
2023/10/04 15:36:54;;;;;;;2.83;1.07;;;;;;;;;;6204423;23;20433;-93
2023/10/04 15:39:29;;;;;;;2.97;1.27;;;;;;;;;;6206773;23;20405;-94
2023/10/04 15:41:56;;;;;;;3.07;2.30;;;;;;;;;;6156804;23;20374;-95
2023/10/04 15:44:25;;;;;;;2.60;1.17;;;;;;;;;;6207210;23;20379;-96
2023/10/04 15:46:52;;;;;;;3.07;1.00;;;;;;;;;;6198326;23;20433;-94
2023/10/04 15:49:19;;;;;;;3.87;1.60;;;;;;;;;;6175162;23;20383;-94
2023/10/04 15:51:45;;;;;;;5.10;1.23;;;;;;;;;;6171194;23;20419;-96
2023/10/04 15:54:13;;;;;;;1.30;1.20;;;;;;;;;;6173321;23;20375;-93
2023/10/04 15:56:39;;;;;;;5.10;1.43;;;;;;;;;;6199125;23;20390;-96
2023/10/04 15:59:09;;;;;;;2.27;1.30;;;;;;;;;;6175653;23;20382;-94
2023/10/04 16:01:37;;;;;;;1.73;0.90;;;;;;;;;;6229115;23;20462;-93
2023/10/04 16:04:03;;;;;;;2.07;0.83;;;;;;;;;;6173137;23;20391;-94
2023/10/04 16:06:31;;;;;;;3.93;1.33;;;;;;;;;;6171773;23;20806;-95
2023/10/04 16:08:58;;;;;;;3.23;1.37;;;;;;;;;;6199141;23;20376;-94
2023/10/04 16:11:24;;;;;;;1.43;0.93;;;;;;;;;;6176908;23;20407;-95
2023/10/04 16:13:51;;;;;;;6.53;1.20;;;;;;;;;;6175733;23;20379;-94
2023/10/04 16:16:17;;;;;;;1.50;1.17;;;;;;;;;;6171055;23;20398;-96
2023/10/04 16:18:43;;;;;;;2.57;1.20;;;;;;;;;;6166990;23;20376;-96
2023/10/04 16:21:12;;;;;;;2.43;1.00;;;;;;;;;;6171985;23;20372;-96
2023/10/04 16:23:38;;;;;;;2.53;1.10;;;;;;;;;;6168345;23;20404;-94
2023/10/04 16:26:04;;;;;;;4.30;1.17;;;;;;;;;;6170409;23;20424;-94
2023/10/04 16:28:31;;;;;;;3.40;1.27;;;;;;;;;;6169802;23;20407;-93
2023/10/04 16:30:57;;;;;;;4.77;1.40;;;;;;;;;;6167986;23;20847;-93
2023/10/04 16:33:24;;;;;;;1.97;0.97;;;;;;;;;;6167285;23;20438;-93
2023/10/04 16:35:54;;;;;;;4.00;1.20;;;;;;;;;;6171756;23;20458;-94
2023/10/04 16:38:21;;;;;;;3.23;1.43;;;;;;;;;;6167971;23;20391;-93
2023/10/04 16:40:47;;;;;;;4.03;1.57;;;;;;;;;;6172385;23;20647;-93
2023/10/04 16:43:13;;;;;;;3.63;1.80;;;;;;;;;;6169778;23;20398;-94
2023/10/04 16:45:39;;;;;;;1.83;1.00;;;;;;;;;;6172753;23;20725;-94
2023/10/04 16:48:06;;;;;;;4.50;1.40;;;;;;;;;;6200070;22;20513;-93
2023/10/04 16:50:32;;;;;;;2.37;1.20;;;;;;;;;;6234276;23;20354;-94
2023/10/04 16:52:58;;;;;;;2.70;1.37;;;;;;;;;;6208386;23;20385;-95
2023/10/04 16:55:26;;;;;;;3.67;1.63;;;;;;;;;;6210928;23;20392;-93
2023/10/04 16:57:52;;;;;;;4.53;2.03;;;;;;;;;;6208245;23;20409;-94
2023/10/04 17:00:18;;;;;;;6.27;1.57;;;;;;;;;;6204203;23;20378;-93
2023/10/04 17:02:48;;;;;;;3.63;1.20;;;;;;;;;;6206533;23;20406;-96
2023/10/04 17:06:00;;;;;;;3.43;1.53;;;;;;;;;;6207187;23;20389;-93
2023/10/04 17:08:26;;;;;;;7.60;3.50;;;;;;;;;;6140217;23;20381;-96
2023/10/04 17:10:52;;;;;;;2.13;1.50;;;;;;;;;;6144427;23;20400;-95
2023/10/04 17:13:21;;;;;;;4.10;1.47;;;;;;;;;;6139228;23;20382;-95
2023/10/04 17:15:49;;;;;;;2.87;1.50;;;;;;;;;;6139549;23;20389;-94
2023/10/04 17:18:15;;;;;;;2.60;1.87;;;;;;;;;;6143003;23;20393;-95
2023/10/04 17:20:43;;;;;;;3.03;1.63;;;;;;;;;;6142315;23;20385;-95
2023/10/04 17:23:14;;;;;;;5.73;2.10;;;;;;;;;;6142183;23;20415;-95
2023/10/04 17:25:47;;;;;;;3.17;2.23;;;;;;;;;;6144099;23;20456;-94
2023/10/04 17:28:17;;;;;;;2.80;2.23;;;;;;;;;;6143208;23;20388;-94
2023/10/04 17:30:44;;;;;;;3.10;2.00;;;;;;;;;;6142777;23;20383;-93
2023/10/04 17:33:10;;;;;;;3.63;1.67;;;;;;;;;;6141511;23;20515;-94
2023/10/04 17:35:37;;;;;;;3.07;2.40;;;;;;;;;;6141603;23;20377;-95
2023/10/04 17:38:07;;;;;;;3.83;2.40;;;;;;;;;;6152054;23;20408;-92
2023/10/04 17:51:01;;;;;;;4.00;1.50;;;;;;;;;;6245355;22;20437;-94
2023/10/04 17:53:30;;;;;;;2.10;1.90;;;;;;;;;;6231437;23;20843;-92
2023/10/04 17:55:58;;;;;;;2.50;1.73;;;;;;;;;;6206920;23;20398;-96
2023/10/04 17:58:24;;;;;;;3.30;2.10;;;;;;;;;;6228254;23;20406;-92
2023/10/04 18:00:50;;;;;;;4.67;2.37;;;;;;;;;;6201003;23;20374;-94
2023/10/04 18:03:16;;;;;;;3.50;1.60;;;;;;;;;;6201921;23;20404;-93
2023/10/04 18:05:45;;;;;;;3.27;1.90;;;;;;;;;;6201025;23;20421;-92
2023/10/04 18:08:14;;;;;;;6.67;2.27;;;;;;;;;;6200952;23;20375;-95
2023/10/04 18:10:41;;;;;;;4.60;2.57;;;;;;;;;;6201728;23;20431;-94
2023/10/04 18:13:09;;;;;;;4.00;1.53;;;;;;;;;;6199314;23;21225;-94
2023/10/04 18:15:47;;;;;;;2.60;1.80;;;;;;;;;;6203037;23;20371;-93
2023/10/04 18:18:22;;;;;;;2.90;1.70;;;;;;;;;;6229179;23;20530;-95
2023/10/04 18:20:51;;;;;;;2.63;1.30;;;;;;;;;;6199685;23;20437;-94
2023/10/04 18:23:22;;;;;;;2.07;1.30;;;;;;;;;;6204701;23;20470;-94
2023/10/04 18:25:48;;;;;;;3.90;1.63;;;;;;;;;;6199614;23;20368;-95
2023/10/04 18:28:15;;;;;;;3.57;1.50;;;;;;;;;;6205365;23;20410;-92
2023/10/04 18:30:42;;;;;;;1.83;1.27;;;;;;;;;;6224932;23;20389;-93
2023/10/04 18:33:10;;;;;;;2.43;1.47;;;;;;;;;;6200663;23;21171;-94
2023/10/04 18:35:37;;;;;;;4.20;2.70;;;;;;;;;;6202302;23;20384;-94
2023/10/04 18:38:04;;;;;;;2.47;1.80;;;;;;;;;;6202020;23;20384;-93
2023/10/04 18:40:41;;;;;;;4.53;2.70;;;;;;;;;;6227464;23;20371;-94
2023/10/04 18:43:09;;;;;;;3.83;2.30;;;;;;;;;;6227750;23;20367;-95
2023/10/04 18:45:35;;;;;;;3.30;1.50;;;;;;;;;;6202694;23;20410;-95
2023/10/04 18:51:00;;;;;;;5.03;2.07;;;;;;;;;;6227448;22;20430;-94
2023/10/04 18:53:29;;;;;;;2.33;1.40;;;;;;;;;;6200965;23;20379;-94
2023/10/04 19:03:43;;;;;;;3.33;1.93;;;;;;;;;;6237535;22;20433;-95
2023/10/04 19:06:09;;;;;;;2.40;1.87;;;;;;;;;;6212262;22;20464;-93
2023/10/04 19:08:49;;;;;;;4.63;2.00;;;;;;;;;;6235567;22;20362;-93
2023/10/04 19:11:25;;;;;;;2.10;1.90;;;;;;;;;;6260921;22;20401;-91
2023/10/04 19:13:51;;;;;;;3.90;1.70;;;;;;;;;;6216455;23;20371;-94
2023/10/04 23:01:25;;;;;;;4.13;2.00;;;;;;;;;;6209446;22;20418;-93
2023/10/04 23:03:55;;;;;;;5.10;1.73;;;;;;;;;;6218225;22;20398;-93
